sensor_id;sensor_type;location;lat;lon;timestamp;temperature;humidity
14901;DHT22;7542;49.078;9.194;2023-05-10T00:00:48;27.10;52.60
14901;DHT22;7542;49.078;9.194;2023-05-10T00:01:49;27.10;52.60
14901;DHT22;7542;49.078;9.194;2023-05-10T00:02:51;27.10;52.60
14901;DHT22;7542;49.078;9.194;2023-05-10T00:03:54;27.10;52.60
14901;DHT22;7542;49.078;9.194;2023-05-10T00:04:56;26.90;52.10
14901;DHT22;7542;49.078;9.194;2023-05-10T00:05:58;27.10;52.60
14901;DHT22;7542;49.078;9.194;2023-05-10T00:07:00;27.10;52.60
14901;DHT22;7542;49.078;9.194;2023-05-10T00:08:02;27.20;52.50
14901;DHT22;7542;49.078;9.194;2023-05-10T00:09:04;27.10;52.50
14901;DHT22;7542;49.078;9.194;2023-05-10T00:10:06;27.10;52.60
14901;DHT22;7542;49.078;9.194;2023-05-10T00:11:08;27.10;52.50
14901;DHT22;7542;49.078;9.194;2023-05-10T00:12:10;27.10;52.50
14901;DHT22;7542;49.078;9.194;2023-05-10T00:13:12;27.10;52.50
14901;DHT22;7542;49.078;9.194;2023-05-10T00:14:15;27.10;52.50
14901;DHT22;7542;49.078;9.194;2023-05-10T00:15:17;27.20;52.50
14901;DHT22;7542;49.078;9.194;2023-05-10T00:16:18;27.20;52.50
14901;DHT22;7542;49.078;9.194;2023-05-10T00:17:21;27.20;52.50
14901;DHT22;7542;49.078;9.194;2023-05-10T00:18:23;27.10;52.50
14901;DHT22;7542;49.078;9.194;2023-05-10T00:19:25;27.10;52.50
14901;DHT22;7542;49.078;9.194;2023-05-10T00:20:26;27.20;52.50
14901;DHT22;7542;49.078;9.194;2023-05-10T00:21:28;27.10;52.40
14901;DHT22;7542;49.078;9.194;2023-05-10T00:22:31;27.10;52.40
14901;DHT22;7542;49.078;9.194;2023-05-10T00:23:33;27.10;52.40
14901;DHT22;7542;49.078;9.194;2023-05-10T00:24:35;27.10;52.40
14901;DHT22;7542;49.078;9.194;2023-05-10T00:25:37;27.10;52.40
14901;DHT22;7542;49.078;9.194;2023-05-10T00:26:39;27.10;52.40
14901;DHT22;7542;49.078;9.194;2023-05-10T00:27:41;27.20;52.40
14901;DHT22;7542;49.078;9.194;2023-05-10T00:28:42;27.10;52.40
14901;DHT22;7542;49.078;9.194;2023-05-10T00:29:44;27.10;52.40
14901;DHT22;7542;49.078;9.194;2023-05-10T00:30:46;27.10;52.40
14901;DHT22;7542;49.078;9.194;2023-05-10T00:31:48;27.10;52.40
14901;DHT22;7542;49.078;9.194;2023-05-10T00:32:50;27.10;52.40
14901;DHT22;7542;49.078;9.194;2023-05-10T00:33:53;27.10;52.30
14901;DHT22;7542;49.078;9.194;2023-05-10T00:34:55;27.10;52.30
14901;DHT22;7542;49.078;9.194;2023-05-10T00:35:57;27.10;52.30
14901;DHT22;7542;49.078;9.194;2023-05-10T00:36:58;27.10;52.40
14901;DHT22;7542;49.078;9.194;2023-05-10T00:38:00;27.10;52.30
14901;DHT22;7542;49.078;9.194;2023-05-10T00:39:03;27.10;52.30
14901;DHT22;7542;49.078;9.194;2023-05-10T00:40:06;27.00;52.30
14901;DHT22;7542;49.078;9.194;2023-05-10T00:41:08;27.00;52.30
14901;DHT22;7542;49.078;9.194;2023-05-10T00:42:10;27.10;52.30
14901;DHT22;7542;49.078;9.194;2023-05-10T00:43:12;27.10;52.40
14901;DHT22;7542;49.078;9.194;2023-05-10T00:44:14;27.10;52.40
14901;DHT22;7542;49.078;9.194;2023-05-10T00:45:16;27.10;52.40
14901;DHT22;7542;49.078;9.194;2023-05-10T00:46:18;27.10;52.40
14901;DHT22;7542;49.078;9.194;2023-05-10T00:47:20;27.10;52.40
14901;DHT22;7542;49.078;9.194;2023-05-10T00:48:23;27.10;52.30
14901;DHT22;7542;49.078;9.194;2023-05-10T00:49:26;27.10;52.30
14901;DHT22;7542;49.078;9.194;2023-05-10T00:50:28;27.00;52.40
14901;DHT22;7542;49.078;9.194;2023-05-10T00:51:30;27.10;52.30
14901;DHT22;7542;49.078;9.194;2023-05-10T00:52:33;27.10;52.40
14901;DHT22;7542;49.078;9.194;2023-05-10T00:53:35;27.00;52.30
14901;DHT22;7542;49.078;9.194;2023-05-10T00:54:37;27.00;52.30
14901;DHT22;7542;49.078;9.194;2023-05-10T00:55:39;27.00;52.30
14901;DHT22;7542;49.078;9.194;2023-05-10T00:56:41;27.00;52.40
14901;DHT22;7542;49.078;9.194;2023-05-10T00:57:44;27.00;52.30
14901;DHT22;7542;49.078;9.194;2023-05-10T00:58:47;27.00;52.30
14901;DHT22;7542;49.078;9.194;2023-05-10T00:59:49;27.00;52.30
14901;DHT22;7542;49.078;9.194;2023-05-10T01:00:51;27.00;52.30
14901;DHT22;7542;49.078;9.194;2023-05-10T01:01:54;27.00;52.30
14901;DHT22;7542;49.078;9.194;2023-05-10T01:02:56;27.00;52.30
14901;DHT22;7542;49.078;9.194;2023-05-10T01:03:58;27.00;52.30
14901;DHT22;7542;49.078;9.194;2023-05-10T01:05:02;27.00;52.30
14901;DHT22;7542;49.078;9.194;2023-05-10T01:06:07;27.00;52.30
14901;DHT22;7542;49.078;9.194;2023-05-10T01:07:09;27.00;52.40
14901;DHT22;7542;49.078;9.194;2023-05-10T01:08:12;27.00;52.30
14901;DHT22;7542;49.078;9.194;2023-05-10T01:09:14;27.00;52.40
14901;DHT22;7542;49.078;9.194;2023-05-10T01:10:16;27.00;52.30
14901;DHT22;7542;49.078;9.194;2023-05-10T01:11:18;27.00;52.30
14901;DHT22;7542;49.078;9.194;2023-05-10T01:12:21;27.00;52.30
14901;DHT22;7542;49.078;9.194;2023-05-10T01:13:37;27.00;52.30
14901;DHT22;7542;49.078;9.194;2023-05-10T01:14:42;27.00;52.30
14901;DHT22;7542;49.078;9.194;2023-05-10T01:15:46;27.00;52.30
14901;DHT22;7542;49.078;9.194;2023-05-10T01:16:49;27.00;52.30
14901;DHT22;7542;49.078;9.194;2023-05-10T01:17:52;27.00;52.30
14901;DHT22;7542;49.078;9.194;2023-05-10T01:18:55;27.00;52.30
14901;DHT22;7542;49.078;9.194;2023-05-10T01:19:57;26.90;51.80
14901;DHT22;7542;49.078;9.194;2023-05-10T01:34:25;26.90;51.80
14901;DHT22;7542;49.078;9.194;2023-05-10T01:37:04;26.90;51.80
14901;DHT22;7542;49.078;9.194;2023-05-10T01:38:33;26.80;51.90
14901;DHT22;7542;49.078;9.194;2023-05-10T01:39:57;26.80;51.80
14901;DHT22;7542;49.078;9.194;2023-05-10T01:42:23;26.90;51.90
14901;DHT22;7542;49.078;9.194;2023-05-10T01:43:33;26.80;51.90
14901;DHT22;7542;49.078;9.194;2023-05-10T01:45:08;26.80;51.90
14901;DHT22;7542;49.078;9.194;2023-05-10T01:46:17;26.80;51.90
14901;DHT22;7542;49.078;9.194;2023-05-10T01:48:52;26.80;51.90
14901;DHT22;7542;49.078;9.194;2023-05-10T01:50:02;26.80;51.90
14901;DHT22;7542;49.078;9.194;2023-05-10T01:51:06;26.80;51.90
14901;DHT22;7542;49.078;9.194;2023-05-10T01:52:12;26.80;51.90
14901;DHT22;7542;49.078;9.194;2023-05-10T01:53:19;26.80;51.90
14901;DHT22;7542;49.078;9.194;2023-05-10T01:54:24;26.80;51.90
14901;DHT22;7542;49.078;9.194;2023-05-10T01:55:29;26.80;51.90
14901;DHT22;7542;49.078;9.194;2023-05-10T01:56:35;26.80;51.90
14901;DHT22;7542;49.078;9.194;2023-05-10T01:57:40;26.70;51.90
14901;DHT22;7542;49.078;9.194;2023-05-10T01:58:47;26.80;51.90
14901;DHT22;7542;49.078;9.194;2023-05-10T01:59:51;26.80;51.90
14901;DHT22;7542;49.078;9.194;2023-05-10T02:00:54;26.80;51.90
14901;DHT22;7542;49.078;9.194;2023-05-10T02:02:00;26.80;51.90
14901;DHT22;7542;49.078;9.194;2023-05-10T02:03:06;26.80;51.90
14901;DHT22;7542;49.078;9.194;2023-05-10T02:04:12;26.80;51.90
14901;DHT22;7542;49.078;9.194;2023-05-10T02:05:17;26.80;51.90
14901;DHT22;7542;49.078;9.194;2023-05-10T02:06:22;26.80;51.90
14901;DHT22;7542;49.078;9.194;2023-05-10T02:07:28;26.80;51.90
14901;DHT22;7542;49.078;9.194;2023-05-10T02:08:30;26.80;51.90
14901;DHT22;7542;49.078;9.194;2023-05-10T02:09:37;26.80;51.90
14901;DHT22;7542;49.078;9.194;2023-05-10T02:10:40;26.70;51.90
14901;DHT22;7542;49.078;9.194;2023-05-10T02:11:44;26.70;51.90
14901;DHT22;7542;49.078;9.194;2023-05-10T02:12:47;26.70;51.90
14901;DHT22;7542;49.078;9.194;2023-05-10T02:13:51;26.70;51.90
14901;DHT22;7542;49.078;9.194;2023-05-10T02:14:56;26.70;51.90
14901;DHT22;7542;49.078;9.194;2023-05-10T02:16:01;26.70;51.90
14901;DHT22;7542;49.078;9.194;2023-05-10T02:17:07;26.70;51.90
14901;DHT22;7542;49.078;9.194;2023-05-10T02:18:11;26.70;51.90
14901;DHT22;7542;49.078;9.194;2023-05-10T02:19:15;26.70;51.90
14901;DHT22;7542;49.078;9.194;2023-05-10T02:20:19;26.70;51.90
14901;DHT22;7542;49.078;9.194;2023-05-10T02:21:22;26.70;51.90
14901;DHT22;7542;49.078;9.194;2023-05-10T02:22:27;26.70;51.90
14901;DHT22;7542;49.078;9.194;2023-05-10T02:23:30;26.70;51.90
14901;DHT22;7542;49.078;9.194;2023-05-10T02:24:33;26.70;51.90
14901;DHT22;7542;49.078;9.194;2023-05-10T02:25:38;26.80;51.90
14901;DHT22;7542;49.078;9.194;2023-05-10T02:26:42;26.70;51.90
14901;DHT22;7542;49.078;9.194;2023-05-10T02:27:47;26.70;51.90
14901;DHT22;7542;49.078;9.194;2023-05-10T02:28:52;26.70;51.90
14901;DHT22;7542;49.078;9.194;2023-05-10T02:29:57;26.70;51.90
14901;DHT22;7542;49.078;9.194;2023-05-10T02:31:00;26.70;51.90
14901;DHT22;7542;49.078;9.194;2023-05-10T02:32:03;26.70;51.80
14901;DHT22;7542;49.078;9.194;2023-05-10T02:33:06;26.70;51.90
14901;DHT22;7542;49.078;9.194;2023-05-10T02:34:10;26.70;51.90
14901;DHT22;7542;49.078;9.194;2023-05-10T02:35:13;26.70;51.90
14901;DHT22;7542;49.078;9.194;2023-05-10T02:36:17;26.70;51.80
14901;DHT22;7542;49.078;9.194;2023-05-10T02:37:22;26.60;51.90
14901;DHT22;7542;49.078;9.194;2023-05-10T02:38:25;26.70;51.80
14901;DHT22;7542;49.078;9.194;2023-05-10T02:39:29;26.70;51.90
14901;DHT22;7542;49.078;9.194;2023-05-10T02:40:33;26.70;51.90
14901;DHT22;7542;49.078;9.194;2023-05-10T02:41:40;26.60;51.90
14901;DHT22;7542;49.078;9.194;2023-05-10T02:42:44;26.60;51.90
14901;DHT22;7542;49.078;9.194;2023-05-10T02:43:55;26.60;51.90
14901;DHT22;7542;49.078;9.194;2023-05-10T02:45:02;26.70;51.90
14901;DHT22;7542;49.078;9.194;2023-05-10T02:46:08;26.60;51.90
14901;DHT22;7542;49.078;9.194;2023-05-10T02:47:10;26.60;51.90
14901;DHT22;7542;49.078;9.194;2023-05-10T02:48:12;26.70;51.90
14901;DHT22;7542;49.078;9.194;2023-05-10T02:49:15;26.60;51.90
14901;DHT22;7542;49.078;9.194;2023-05-10T02:50:18;26.60;51.90
14901;DHT22;7542;49.078;9.194;2023-05-10T02:51:25;26.60;51.90
14901;DHT22;7542;49.078;9.194;2023-05-10T02:52:42;26.60;51.90
14901;DHT22;7542;49.078;9.194;2023-05-10T02:53:49;26.60;51.90
14901;DHT22;7542;49.078;9.194;2023-05-10T02:54:57;26.60;51.90
14901;DHT22;7542;49.078;9.194;2023-05-10T02:56:07;26.60;51.90
14901;DHT22;7542;49.078;9.194;2023-05-10T02:57:16;26.60;51.90
14901;DHT22;7542;49.078;9.194;2023-05-10T02:58:23;26.60;51.90
14901;DHT22;7542;49.078;9.194;2023-05-10T02:59:25;26.60;51.90
14901;DHT22;7542;49.078;9.194;2023-05-10T03:00:26;26.60;51.90
14901;DHT22;7542;49.078;9.194;2023-05-10T03:01:29;26.60;51.90
14901;DHT22;7542;49.078;9.194;2023-05-10T03:02:31;26.60;51.90
14901;DHT22;7542;49.078;9.194;2023-05-10T03:03:33;26.60;51.90
14901;DHT22;7542;49.078;9.194;2023-05-10T03:04:35;26.60;51.90
14901;DHT22;7542;49.078;9.194;2023-05-10T03:05:37;26.60;51.90
14901;DHT22;7542;49.078;9.194;2023-05-10T03:06:40;26.60;51.90
14901;DHT22;7542;49.078;9.194;2023-05-10T03:07:43;26.50;51.90
14901;DHT22;7542;49.078;9.194;2023-05-10T03:08:45;26.60;51.90
14901;DHT22;7542;49.078;9.194;2023-05-10T03:09:48;26.60;51.90
14901;DHT22;7542;49.078;9.194;2023-05-10T03:16:38;26.60;52.00
14901;DHT22;7542;49.078;9.194;2023-05-10T03:19:24;26.50;52.00
14901;DHT22;7542;49.078;9.194;2023-05-10T03:20:38;26.60;52.00
14901;DHT22;7542;49.078;9.194;2023-05-10T03:21:49;26.50;52.00
14901;DHT22;7542;49.078;9.194;2023-05-10T03:23:02;26.50;52.00
14901;DHT22;7542;49.078;9.194;2023-05-10T03:24:11;26.60;52.00
14901;DHT22;7542;49.078;9.194;2023-05-10T03:25:17;26.50;52.00
14901;DHT22;7542;49.078;9.194;2023-05-10T03:26:24;26.50;52.00
14901;DHT22;7542;49.078;9.194;2023-05-10T03:27:29;26.50;52.00
14901;DHT22;7542;49.078;9.194;2023-05-10T03:28:34;26.60;52.00
14901;DHT22;7542;49.078;9.194;2023-05-10T03:29:38;26.50;52.00
14901;DHT22;7542;49.078;9.194;2023-05-10T03:30:42;26.50;52.00
14901;DHT22;7542;49.078;9.194;2023-05-10T03:31:45;26.50;52.00
14901;DHT22;7542;49.078;9.194;2023-05-10T03:32:48;26.50;52.00
14901;DHT22;7542;49.078;9.194;2023-05-10T03:33:51;26.50;52.00
14901;DHT22;7542;49.078;9.194;2023-05-10T03:34:54;26.50;52.00
14901;DHT22;7542;49.078;9.194;2023-05-10T03:35:56;26.50;52.00
14901;DHT22;7542;49.078;9.194;2023-05-10T03:36:58;26.40;52.00
14901;DHT22;7542;49.078;9.194;2023-05-10T03:38:00;26.50;51.90
14901;DHT22;7542;49.078;9.194;2023-05-10T03:39:02;26.50;52.00
14901;DHT22;7542;49.078;9.194;2023-05-10T03:40:05;26.50;52.00
14901;DHT22;7542;49.078;9.194;2023-05-10T03:41:08;26.50;52.00
14901;DHT22;7542;49.078;9.194;2023-05-10T03:42:10;26.50;52.00
14901;DHT22;7542;49.078;9.194;2023-05-10T03:43:13;26.40;52.00
14901;DHT22;7542;49.078;9.194;2023-05-10T03:44:15;26.40;52.00
14901;DHT22;7542;49.078;9.194;2023-05-10T03:45:17;26.40;52.00
14901;DHT22;7542;49.078;9.194;2023-05-10T03:46:19;26.60;52.00
14901;DHT22;7542;49.078;9.194;2023-05-10T03:47:21;26.40;52.00
14901;DHT22;7542;49.078;9.194;2023-05-10T03:48:23;26.40;52.00
14901;DHT22;7542;49.078;9.194;2023-05-10T03:49:25;26.50;52.00
14901;DHT22;7542;49.078;9.194;2023-05-10T03:50:27;26.50;52.00
14901;DHT22;7542;49.078;9.194;2023-05-10T03:51:29;26.50;52.00
14901;DHT22;7542;49.078;9.194;2023-05-10T03:52:32;26.40;52.00
14901;DHT22;7542;49.078;9.194;2023-05-10T03:53:34;26.50;52.00
14901;DHT22;7542;49.078;9.194;2023-05-10T03:54:37;26.50;52.00
14901;DHT22;7542;49.078;9.194;2023-05-10T03:55:39;26.40;52.00
14901;DHT22;7542;49.078;9.194;2023-05-10T03:56:41;26.40;52.00
14901;DHT22;7542;49.078;9.194;2023-05-10T03:57:43;26.40;52.00
14901;DHT22;7542;49.078;9.194;2023-05-10T03:58:45;26.50;52.00
14901;DHT22;7542;49.078;9.194;2023-05-10T03:59:47;26.40;52.00
14901;DHT22;7542;49.078;9.194;2023-05-10T04:00:49;26.40;52.00
14901;DHT22;7542;49.078;9.194;2023-05-10T04:02:11;26.40;52.00
14901;DHT22;7542;49.078;9.194;2023-05-10T04:03:13;26.40;52.00
14901;DHT22;7542;49.078;9.194;2023-05-10T04:04:15;26.40;52.00
14901;DHT22;7542;49.078;9.194;2023-05-10T04:05:20;26.50;52.00
14901;DHT22;7542;49.078;9.194;2023-05-10T04:06:22;26.40;52.00
14901;DHT22;7542;49.078;9.194;2023-05-10T04:07:24;26.40;52.00
14901;DHT22;7542;49.078;9.194;2023-05-10T04:08:26;26.40;52.00
14901;DHT22;7542;49.078;9.194;2023-05-10T04:09:28;26.40;52.00
14901;DHT22;7542;49.078;9.194;2023-05-10T04:10:30;26.40;52.00
14901;DHT22;7542;49.078;9.194;2023-05-10T04:11:32;26.40;52.00
14901;DHT22;7542;49.078;9.194;2023-05-10T04:12:34;26.60;52.00
14901;DHT22;7542;49.078;9.194;2023-05-10T04:13:36;26.40;52.00
14901;DHT22;7542;49.078;9.194;2023-05-10T04:14:39;26.40;52.00
14901;DHT22;7542;49.078;9.194;2023-05-10T04:15:41;26.30;52.00
14901;DHT22;7542;49.078;9.194;2023-05-10T04:16:43;26.30;52.00
14901;DHT22;7542;49.078;9.194;2023-05-10T04:17:45;26.30;52.00
14901;DHT22;7542;49.078;9.194;2023-05-10T04:18:47;26.50;52.00
14901;DHT22;7542;49.078;9.194;2023-05-10T04:19:50;26.30;52.10
14901;DHT22;7542;49.078;9.194;2023-05-10T04:20:54;26.30;52.00
14901;DHT22;7542;49.078;9.194;2023-05-10T04:21:56;26.40;52.10
14901;DHT22;7542;49.078;9.194;2023-05-10T04:22:59;26.30;52.00
14901;DHT22;7542;49.078;9.194;2023-05-10T04:24:01;26.30;52.00
14901;DHT22;7542;49.078;9.194;2023-05-10T04:25:03;26.30;52.10
14901;DHT22;7542;49.078;9.194;2023-05-10T04:26:06;26.30;52.00
14901;DHT22;7542;49.078;9.194;2023-05-10T04:27:08;26.40;52.10
14901;DHT22;7542;49.078;9.194;2023-05-10T04:28:10;26.30;52.00
14901;DHT22;7542;49.078;9.194;2023-05-10T04:29:12;26.30;52.00
14901;DHT22;7542;49.078;9.194;2023-05-10T04:30:14;26.30;52.00
14901;DHT22;7542;49.078;9.194;2023-05-10T04:31:16;26.30;52.00
14901;DHT22;7542;49.078;9.194;2023-05-10T04:32:18;26.30;52.00
14901;DHT22;7542;49.078;9.194;2023-05-10T04:33:22;26.30;52.00
14901;DHT22;7542;49.078;9.194;2023-05-10T04:34:24;26.30;52.00
14901;DHT22;7542;49.078;9.194;2023-05-10T04:35:27;26.30;52.10
14901;DHT22;7542;49.078;9.194;2023-05-10T04:36:29;26.30;52.00
14901;DHT22;7542;49.078;9.194;2023-05-10T04:37:31;26.30;52.10
14901;DHT22;7542;49.078;9.194;2023-05-10T04:38:33;26.30;52.10
14901;DHT22;7542;49.078;9.194;2023-05-10T04:39:35;26.30;52.00
14901;DHT22;7542;49.078;9.194;2023-05-10T04:40:37;26.30;52.00
14901;DHT22;7542;49.078;9.194;2023-05-10T04:41:39;26.30;52.00
14901;DHT22;7542;49.078;9.194;2023-05-10T04:42:42;26.20;52.10
14901;DHT22;7542;49.078;9.194;2023-05-10T04:43:45;26.30;52.10
14901;DHT22;7542;49.078;9.194;2023-05-10T04:44:48;26.30;52.00
14901;DHT22;7542;49.078;9.194;2023-05-10T04:45:50;26.40;52.00
14901;DHT22;7542;49.078;9.194;2023-05-10T04:46:52;26.30;52.00
14901;DHT22;7542;49.078;9.194;2023-05-10T04:47:53;26.20;52.00
14901;DHT22;7542;49.078;9.194;2023-05-10T04:48:56;26.30;52.00
14901;DHT22;7542;49.078;9.194;2023-05-10T04:49:58;26.20;52.00
14901;DHT22;7542;49.078;9.194;2023-05-10T04:51:00;26.20;52.00
14901;DHT22;7542;49.078;9.194;2023-05-10T04:52:02;26.30;52.00
14901;DHT22;7542;49.078;9.194;2023-05-10T04:53:04;26.30;52.00
14901;DHT22;7542;49.078;9.194;2023-05-10T04:54:06;26.30;52.00
14901;DHT22;7542;49.078;9.194;2023-05-10T04:55:08;26.30;52.00
14901;DHT22;7542;49.078;9.194;2023-05-10T04:56:11;26.20;52.10
14901;DHT22;7542;49.078;9.194;2023-05-10T04:57:13;26.20;52.00
14901;DHT22;7542;49.078;9.194;2023-05-10T04:58:15;26.20;52.00
14901;DHT22;7542;49.078;9.194;2023-05-10T04:59:17;26.20;52.00
14901;DHT22;7542;49.078;9.194;2023-05-10T05:00:19;26.20;52.10
14901;DHT22;7542;49.078;9.194;2023-05-10T05:01:21;26.20;52.10
14901;DHT22;7542;49.078;9.194;2023-05-10T05:02:24;26.20;52.10
14901;DHT22;7542;49.078;9.194;2023-05-10T05:03:27;26.20;52.10
14901;DHT22;7542;49.078;9.194;2023-05-10T05:04:29;26.30;52.00
14901;DHT22;7542;49.078;9.194;2023-05-10T05:05:32;26.20;52.00
14901;DHT22;7542;49.078;9.194;2023-05-10T05:06:34;26.20;52.10
14901;DHT22;7542;49.078;9.194;2023-05-10T05:07:36;26.20;52.10
14901;DHT22;7542;49.078;9.194;2023-05-10T05:08:39;26.20;52.00
14901;DHT22;7542;49.078;9.194;2023-05-10T05:09:40;26.20;52.10
14901;DHT22;7542;49.078;9.194;2023-05-10T05:10:42;26.10;52.00
14901;DHT22;7542;49.078;9.194;2023-05-10T05:11:44;26.20;52.10
14901;DHT22;7542;49.078;9.194;2023-05-10T05:12:46;26.20;52.00
14901;DHT22;7542;49.078;9.194;2023-05-10T05:13:48;26.20;52.10
14901;DHT22;7542;49.078;9.194;2023-05-10T05:14:50;26.20;52.10
14901;DHT22;7542;49.078;9.194;2023-05-10T05:15:52;26.20;52.10
14901;DHT22;7542;49.078;9.194;2023-05-10T05:16:55;26.20;52.10
14901;DHT22;7542;49.078;9.194;2023-05-10T05:17:57;26.20;52.10
14901;DHT22;7542;49.078;9.194;2023-05-10T05:18:59;26.20;52.10
14901;DHT22;7542;49.078;9.194;2023-05-10T05:20:02;26.20;52.10
14901;DHT22;7542;49.078;9.194;2023-05-10T05:21:18;26.20;52.10
14901;DHT22;7542;49.078;9.194;2023-05-10T05:22:21;26.20;52.20
14901;DHT22;7542;49.078;9.194;2023-05-10T05:23:29;26.20;52.10
14901;DHT22;7542;49.078;9.194;2023-05-10T05:24:35;26.20;52.20
14901;DHT22;7542;49.078;9.194;2023-05-10T05:25:39;26.20;52.20
14901;DHT22;7542;49.078;9.194;2023-05-10T05:26:41;26.20;52.20
14901;DHT22;7542;49.078;9.194;2023-05-10T05:27:43;26.20;52.20
14901;DHT22;7542;49.078;9.194;2023-05-10T05:28:45;26.20;52.20
14901;DHT22;7542;49.078;9.194;2023-05-10T05:29:47;26.20;52.30
14901;DHT22;7542;49.078;9.194;2023-05-10T05:30:49;26.20;52.20
14901;DHT22;7542;49.078;9.194;2023-05-10T05:31:51;26.20;52.30
14901;DHT22;7542;49.078;9.194;2023-05-10T05:32:56;26.20;52.30
14901;DHT22;7542;49.078;9.194;2023-05-10T05:33:58;26.20;52.30
14901;DHT22;7542;49.078;9.194;2023-05-10T05:35:00;26.20;52.30
14901;DHT22;7542;49.078;9.194;2023-05-10T05:36:03;26.20;52.30
14901;DHT22;7542;49.078;9.194;2023-05-10T05:37:06;26.10;52.20
14901;DHT22;7542;49.078;9.194;2023-05-10T05:38:08;26.20;52.30
14901;DHT22;7542;49.078;9.194;2023-05-10T05:39:10;26.30;52.30
14901;DHT22;7542;49.078;9.194;2023-05-10T05:40:13;26.20;52.20
14901;DHT22;7542;49.078;9.194;2023-05-10T05:41:15;26.20;52.30
14901;DHT22;7542;49.078;9.194;2023-05-10T05:42:17;26.20;52.30
14901;DHT22;7542;49.078;9.194;2023-05-10T05:43:20;26.20;52.30
14901;DHT22;7542;49.078;9.194;2023-05-10T05:44:22;26.10;52.20
14901;DHT22;7542;49.078;9.194;2023-05-10T05:45:24;26.10;52.30
14901;DHT22;7542;49.078;9.194;2023-05-10T05:46:26;26.20;52.30
14901;DHT22;7542;49.078;9.194;2023-05-10T05:47:28;26.20;52.20
14901;DHT22;7542;49.078;9.194;2023-05-10T05:48:30;26.20;52.20
14901;DHT22;7542;49.078;9.194;2023-05-10T05:49:33;26.10;52.20
14901;DHT22;7542;49.078;9.194;2023-05-10T05:50:34;26.20;52.20
14901;DHT22;7542;49.078;9.194;2023-05-10T05:51:36;26.20;52.20
14901;DHT22;7542;49.078;9.194;2023-05-10T05:52:38;26.20;52.20
14901;DHT22;7542;49.078;9.194;2023-05-10T05:53:40;26.10;52.20
14901;DHT22;7542;49.078;9.194;2023-05-10T05:54:42;26.20;52.20
14901;DHT22;7542;49.078;9.194;2023-05-10T05:55:52;26.20;52.20
14901;DHT22;7542;49.078;9.194;2023-05-10T05:56:58;26.20;52.20
14901;DHT22;7542;49.078;9.194;2023-05-10T05:58:02;26.20;52.20
14901;DHT22;7542;49.078;9.194;2023-05-10T05:59:04;26.20;52.30
14901;DHT22;7542;49.078;9.194;2023-05-10T06:00:07;26.20;52.40
14901;DHT22;7542;49.078;9.194;2023-05-10T06:01:09;26.20;52.60
14901;DHT22;7542;49.078;9.194;2023-05-10T06:02:11;26.20;52.60
14901;DHT22;7542;49.078;9.194;2023-05-10T06:03:13;26.20;52.70
14901;DHT22;7542;49.078;9.194;2023-05-10T06:04:16;26.20;52.70
14901;DHT22;7542;49.078;9.194;2023-05-10T06:05:18;26.20;52.80
14901;DHT22;7542;49.078;9.194;2023-05-10T06:06:20;26.20;52.70
14901;DHT22;7542;49.078;9.194;2023-05-10T06:07:22;26.20;52.70
14901;DHT22;7542;49.078;9.194;2023-05-10T06:08:24;26.20;52.60
14901;DHT22;7542;49.078;9.194;2023-05-10T06:09:27;26.20;52.70
14901;DHT22;7542;49.078;9.194;2023-05-10T06:10:29;26.20;52.70
14901;DHT22;7542;49.078;9.194;2023-05-10T06:11:32;26.20;52.50
14901;DHT22;7542;49.078;9.194;2023-05-10T06:12:34;26.20;52.50
14901;DHT22;7542;49.078;9.194;2023-05-10T06:13:37;26.20;52.50
14901;DHT22;7542;49.078;9.194;2023-05-10T06:14:39;26.20;52.50
14901;DHT22;7542;49.078;9.194;2023-05-10T06:15:40;26.10;52.50
14901;DHT22;7542;49.078;9.194;2023-05-10T06:16:42;26.20;52.50
14901;DHT22;7542;49.078;9.194;2023-05-10T06:17:44;26.20;52.40
14901;DHT22;7542;49.078;9.194;2023-05-10T06:18:48;26.10;52.40
14901;DHT22;7542;49.078;9.194;2023-05-10T06:19:50;26.20;52.50
14901;DHT22;7542;49.078;9.194;2023-05-10T06:20:52;26.20;52.50
14901;DHT22;7542;49.078;9.194;2023-05-10T06:21:54;26.20;52.50
14901;DHT22;7542;49.078;9.194;2023-05-10T06:22:57;26.20;52.40
14901;DHT22;7542;49.078;9.194;2023-05-10T06:23:59;26.10;52.40
14901;DHT22;7542;49.078;9.194;2023-05-10T06:25:01;26.20;52.50
14901;DHT22;7542;49.078;9.194;2023-05-10T06:26:04;26.20;52.40
14901;DHT22;7542;49.078;9.194;2023-05-10T06:27:06;26.20;52.40
14901;DHT22;7542;49.078;9.194;2023-05-10T06:28:08;26.20;52.40
14901;DHT22;7542;49.078;9.194;2023-05-10T06:29:10;26.20;52.40
14901;DHT22;7542;49.078;9.194;2023-05-10T06:30:12;26.00;52.40
14901;DHT22;7542;49.078;9.194;2023-05-10T06:31:16;26.20;52.50
14901;DHT22;7542;49.078;9.194;2023-05-10T06:32:18;26.20;52.50
14901;DHT22;7542;49.078;9.194;2023-05-10T06:33:20;26.20;52.40
14901;DHT22;7542;49.078;9.194;2023-05-10T06:34:22;26.00;52.40
14901;DHT22;7542;49.078;9.194;2023-05-10T06:35:24;26.20;52.40
14901;DHT22;7542;49.078;9.194;2023-05-10T06:36:27;26.20;52.40
14901;DHT22;7542;49.078;9.194;2023-05-10T06:37:29;26.20;52.40
14901;DHT22;7542;49.078;9.194;2023-05-10T06:38:31;26.20;52.40
14901;DHT22;7542;49.078;9.194;2023-05-10T06:39:32;26.20;52.40
14901;DHT22;7542;49.078;9.194;2023-05-10T06:40:34;26.20;52.50
14901;DHT22;7542;49.078;9.194;2023-05-10T06:41:37;26.20;52.40
14901;DHT22;7542;49.078;9.194;2023-05-10T06:42:39;26.20;52.40
14901;DHT22;7542;49.078;9.194;2023-05-10T06:43:41;26.30;52.40
14901;DHT22;7542;49.078;9.194;2023-05-10T06:44:44;26.30;52.40
14901;DHT22;7542;49.078;9.194;2023-05-10T06:45:47;26.20;52.40
14901;DHT22;7542;49.078;9.194;2023-05-10T06:46:49;26.20;52.40
14901;DHT22;7542;49.078;9.194;2023-05-10T06:47:52;26.20;52.40
14901;DHT22;7542;49.078;9.194;2023-05-10T06:48:54;26.30;52.40
14901;DHT22;7542;49.078;9.194;2023-05-10T06:49:56;26.30;52.30
14901;DHT22;7542;49.078;9.194;2023-05-10T06:50:58;26.30;52.30
14901;DHT22;7542;49.078;9.194;2023-05-10T06:52:00;26.30;52.40
14901;DHT22;7542;49.078;9.194;2023-05-10T06:53:02;26.30;52.40
14901;DHT22;7542;49.078;9.194;2023-05-10T06:54:04;26.30;52.40
14901;DHT22;7542;49.078;9.194;2023-05-10T06:55:06;26.30;52.30
14901;DHT22;7542;49.078;9.194;2023-05-10T06:56:08;26.30;52.40
14901;DHT22;7542;49.078;9.194;2023-05-10T06:57:10;26.30;52.30
14901;DHT22;7542;49.078;9.194;2023-05-10T06:58:31;26.30;52.40
14901;DHT22;7542;49.078;9.194;2023-05-10T06:59:34;26.40;52.40
14901;DHT22;7542;49.078;9.194;2023-05-10T07:00:36;26.30;52.40
14901;DHT22;7542;49.078;9.194;2023-05-10T07:01:42;26.30;52.30
14901;DHT22;7542;49.078;9.194;2023-05-10T07:02:44;26.30;52.30
14901;DHT22;7542;49.078;9.194;2023-05-10T07:03:46;26.40;52.30
14901;DHT22;7542;49.078;9.194;2023-05-10T07:04:48;26.40;52.40
14901;DHT22;7542;49.078;9.194;2023-05-10T07:05:50;26.40;52.30
14901;DHT22;7542;49.078;9.194;2023-05-10T07:06:52;26.40;52.30
14901;DHT22;7542;49.078;9.194;2023-05-10T07:07:55;26.40;52.30
14901;DHT22;7542;49.078;9.194;2023-05-10T07:08:57;26.40;52.30
14901;DHT22;7542;49.078;9.194;2023-05-10T07:09:58;26.40;52.30
14901;DHT22;7542;49.078;9.194;2023-05-10T07:11:05;26.40;52.30
14901;DHT22;7542;49.078;9.194;2023-05-10T07:12:09;26.30;52.40